createdAt,value
2022-07-29T00:00:24.344Z,101361.03
2022-07-29T00:02:52.349Z,101368.66
2022-07-29T00:05:24.075Z,101372.06
2022-07-29T00:07:51.905Z,101369.00
2022-07-29T00:10:19.826Z,101372.03
2022-07-29T00:12:47.681Z,101363.38
2022-07-29T00:15:15.948Z,101364.53
2022-07-29T00:17:43.763Z,101369.78
2022-07-29T00:20:12.117Z,101360.47
2022-07-29T00:22:41.683Z,101355.50
2022-07-29T00:25:10.021Z,101355.25
2022-07-29T00:27:38.560Z,101354.63
2022-07-29T00:30:07.669Z,101361.78
2022-07-29T00:32:36.667Z,101352.72
2022-07-29T00:35:22.604Z,101353.03
2022-07-29T00:37:54.095Z,101361.66
2022-07-29T00:40:23.475Z,101361.88
2022-07-29T00:42:52.763Z,101351.28
2022-07-29T00:45:22.889Z,101362.50
2022-07-29T00:47:51.236Z,101360.81
2022-07-29T00:50:19.176Z,101354.38
2022-07-29T00:52:47.065Z,101350.00
2022-07-29T00:55:17.864Z,101342.50
2022-07-29T00:57:46.844Z,101341.13
2022-07-29T01:00:18.256Z,101343.06
2022-07-29T01:02:46.488Z,101338.16
2022-07-29T01:05:14.827Z,101335.84
2022-07-29T01:07:43.596Z,101333.31
2022-07-29T01:10:12.474Z,101329.59
2022-07-29T01:12:42.263Z,101329.41
2022-07-29T01:15:10.842Z,101334.69
2022-07-29T01:17:52.789Z,101334.72
2022-07-29T01:20:31.516Z,101330.38
2022-07-29T01:23:13.908Z,101324.97
2022-07-29T01:25:57.031Z,101316.31
2022-07-29T01:28:54.996Z,101307.13
2022-07-29T01:31:29.050Z,101307.28
2022-07-29T01:34:02.196Z,101291.44
2022-07-29T01:36:33.508Z,101290.16
2022-07-29T01:39:06.449Z,101290.16
2022-07-29T01:41:36.005Z,101278.09
2022-07-29T01:44:12.961Z,101269.63
2022-07-29T01:46:45.252Z,101262.28
2022-07-29T01:49:17.368Z,101259.88
2022-07-29T01:51:49.713Z,101259.81
2022-07-29T01:54:28.619Z,101255.22
2022-07-29T01:56:58.371Z,101251.03
2022-07-29T01:59:28.571Z,101258.91
2022-07-29T02:01:57.468Z,101255.56
2022-07-29T02:04:29.116Z,101253.53
2022-07-29T02:07:01.106Z,101249.22
2022-07-29T02:09:29.364Z,101244.97
2022-07-29T02:11:58.272Z,101250.63
2022-07-29T02:14:31.323Z,101251.47
2022-07-29T02:17:00.758Z,101256.13
2022-07-29T02:19:29.675Z,101256.41
2022-07-29T02:21:58.430Z,101255.66
2022-07-29T02:24:26.973Z,101262.28
2022-07-29T02:26:56.295Z,101263.78
2022-07-29T02:29:27.343Z,101271.44
2022-07-29T02:31:55.762Z,101268.78
2022-07-29T02:34:24.071Z,101275.28
2022-07-29T02:36:52.196Z,101264.63
2022-07-29T02:39:20.589Z,101263.94
2022-07-29T02:41:50.708Z,101272.25
2022-07-29T02:44:21.085Z,101268.38
2022-07-29T02:46:54.281Z,101272.50
2022-07-29T02:49:32.914Z,101268.69
2022-07-29T02:52:03.404Z,101272.63
2022-07-29T02:54:34.566Z,101262.31
2022-07-29T02:57:06.034Z,101271.94
2022-07-29T02:59:35.017Z,101261.41
2022-07-29T03:02:04.850Z,101266.25
2022-07-29T03:04:33.276Z,101267.91
2022-07-29T03:07:03.365Z,101265.22
2022-07-29T03:09:31.992Z,101263.97
2022-07-29T03:12:00.013Z,101264.00
2022-07-29T03:14:29.800Z,101261.66
2022-07-29T03:16:57.690Z,101263.41
2022-07-29T03:19:27.167Z,101248.47
2022-07-29T03:21:55.259Z,101255.88
2022-07-29T03:24:30.634Z,101251.41
2022-07-29T03:26:59.024Z,101246.28
2022-07-29T03:29:33.142Z,101244.25
2022-07-29T03:32:03.535Z,101252.59
2022-07-29T03:34:33.619Z,101262.78
2022-07-29T03:37:01.937Z,101250.56
2022-07-29T03:39:32.689Z,101246.16
2022-07-29T03:42:02.468Z,101243.41
2022-07-29T03:44:30.935Z,101243.88
2022-07-29T03:47:00.166Z,101240.91
2022-07-29T03:49:29.177Z,101241.88
2022-07-29T03:51:58.479Z,101243.44
2022-07-29T03:54:26.449Z,101239.13
2022-07-29T03:56:54.961Z,101239.19
2022-07-29T03:59:23.528Z,101246.81
2022-07-29T04:01:52.315Z,101248.94
2022-07-29T04:04:20.423Z,101245.94
2022-07-29T04:06:48.629Z,101245.22
2022-07-29T04:09:17.857Z,101241.50
2022-07-29T04:11:59.128Z,101244.69
2022-07-29T04:14:32.113Z,101249.59
2022-07-29T04:16:59.967Z,101253.75
2022-07-29T04:19:27.845Z,101252.69
2022-07-29T04:21:55.743Z,101253.72
2022-07-29T04:24:24.976Z,101251.38
2022-07-29T04:26:53.167Z,101256.59
2022-07-29T04:29:21.124Z,101252.38
2022-07-29T04:31:49.186Z,101246.69
2022-07-29T04:34:17.394Z,101255.75
2022-07-29T04:36:45.507Z,101247.06
2022-07-29T04:39:17.060Z,101246.72
2022-07-29T04:41:48.633Z,101254.09
2022-07-29T04:44:16.774Z,101253.94
2022-07-29T04:46:45.637Z,101252.34
2022-07-29T04:49:14.192Z,101249.13
2022-07-29T04:51:42.211Z,101257.31
2022-07-29T04:54:10.034Z,101260.97
2022-07-29T04:56:37.944Z,101261.38
2022-07-29T04:59:07.202Z,101259.25
2022-07-29T05:01:35.173Z,101254.28
2022-07-29T05:04:04.232Z,101257.53
2022-07-29T05:06:32.252Z,101254.81
2022-07-29T05:09:00.069Z,101261.28
2022-07-29T05:11:30.553Z,101254.28
2022-07-29T05:13:58.615Z,101254.81
2022-07-29T05:16:28.272Z,101259.97
2022-07-29T05:18:56.106Z,101257.59
2022-07-29T05:21:24.050Z,101253.00
2022-07-29T05:23:51.905Z,101262.81
2022-07-29T05:26:19.901Z,101259.72
2022-07-29T05:28:47.762Z,101244.22
2022-07-29T05:31:15.903Z,101247.13
2022-07-29T05:33:45.353Z,101247.84
2022-07-29T05:36:13.252Z,101256.91
2022-07-29T05:38:41.224Z,101253.88
2022-07-29T05:41:09.123Z,101245.69
2022-07-29T05:43:37.001Z,101255.28
2022-07-29T05:46:07.963Z,101249.94
2022-07-29T05:48:36.861Z,101251.66
2022-07-29T05:51:09.174Z,101247.09
2022-07-29T05:53:37.046Z,101257.03
2022-07-29T05:56:08.567Z,101250.75
2022-07-29T05:58:37.199Z,101255.53
2022-07-29T06:01:08.205Z,101248.81
2022-07-29T06:03:38.733Z,101244.28
2022-07-29T06:06:08.213Z,101258.34
2022-07-29T06:08:37.510Z,101255.97
2022-07-29T06:11:09.309Z,101250.47
2022-07-29T06:13:39.568Z,101244.59
2022-07-29T06:16:07.623Z,101252.44
2022-07-29T06:18:36.090Z,101240.97
2022-07-29T06:21:06.153Z,101243.75
2022-07-29T06:23:33.952Z,101246.50
2022-07-29T06:26:08.467Z,101244.28
2022-07-29T06:28:36.562Z,101242.16
2022-07-29T06:31:06.997Z,101241.91
2022-07-29T06:33:38.313Z,101248.00
2022-07-29T06:36:10.044Z,101252.78
2022-07-29T06:38:42.044Z,101250.00
2022-07-29T06:41:13.523Z,101242.13
2022-07-29T06:43:52.342Z,101259.00
2022-07-29T06:46:23.928Z,101247.16
2022-07-29T06:48:53.227Z,101253.28
2022-07-29T06:51:23.096Z,101242.03
2022-07-29T06:53:59.869Z,101246.88
2022-07-29T06:56:32.395Z,101252.47
2022-07-29T06:59:06.822Z,101260.34
2022-07-29T07:01:34.710Z,101266.72
2022-07-29T07:04:02.626Z,101265.25
2022-07-29T07:06:30.488Z,101261.31
2022-07-29T07:08:58.324Z,101269.31
2022-07-29T07:11:26.232Z,101266.22
2022-07-29T07:13:59.309Z,101266.22
2022-07-29T07:16:30.364Z,101270.47
2022-07-29T07:18:58.242Z,101262.09
2022-07-29T07:21:26.218Z,101261.81
2022-07-29T07:23:58.267Z,101259.72
2022-07-29T07:26:26.098Z,101258.59
2022-07-29T07:28:55.512Z,101256.38
2022-07-29T07:31:23.493Z,101255.19
2022-07-29T07:33:52.688Z,101257.63
2022-07-29T07:36:20.602Z,101247.50
2022-07-29T07:38:48.481Z,101248.25
2022-07-29T07:41:16.378Z,101251.13
2022-07-29T07:43:44.236Z,101247.41
2022-07-29T07:46:13.905Z,101247.34
2022-07-29T07:48:41.856Z,101244.16
2022-07-29T07:51:09.725Z,101250.25
2022-07-29T07:53:37.735Z,101247.56
2022-07-29T07:56:11.508Z,101248.81
2022-07-29T07:58:40.516Z,101238.28
2022-07-29T08:01:08.733Z,101235.13
2022-07-29T08:03:38.591Z,101244.97
2022-07-29T08:06:06.969Z,101242.66
2022-07-29T08:08:34.836Z,101242.97
2022-07-29T08:11:09.478Z,101244.59
2022-07-29T08:13:38.586Z,101246.00
2022-07-29T08:16:13.857Z,101243.84
2022-07-29T08:18:44.801Z,101247.28
2022-07-29T08:21:14.763Z,101244.22
2022-07-29T08:23:54.362Z,101238.25
2022-07-29T08:26:26.770Z,101234.06
2022-07-29T08:28:54.882Z,101234.38
2022-07-29T08:31:22.932Z,101231.34
2022-07-29T08:33:52.338Z,101226.31
2022-07-29T08:36:22.030Z,101228.66
2022-07-29T08:38:50.635Z,101228.56
2022-07-29T08:41:20.002Z,101229.56
2022-07-29T08:43:48.426Z,101214.53
2022-07-29T08:46:16.414Z,101223.00
2022-07-29T08:48:44.529Z,101221.88
2022-07-29T08:51:17.002Z,101222.66
2022-07-29T08:53:45.777Z,101221.00
2022-07-29T08:56:15.145Z,101216.00
2022-07-29T08:58:43.289Z,101222.34
2022-07-29T09:01:18.481Z,101228.78
2022-07-29T09:03:48.419Z,101226.69
2022-07-29T09:06:20.256Z,101220.69
2022-07-29T09:08:48.249Z,101218.56
2022-07-29T09:11:16.499Z,101224.66
2022-07-29T09:13:44.328Z,101220.66
2022-07-29T09:16:12.194Z,101219.97
2022-07-29T09:18:42.073Z,101218.28
2022-07-29T09:21:30.024Z,101223.72
2022-07-29T09:24:09.170Z,101228.31
2022-07-29T09:26:38.391Z,101212.22
2022-07-29T09:29:15.935Z,101208.22
2022-07-29T09:31:45.866Z,101214.44
2022-07-29T09:34:14.829Z,101213.84
2022-07-29T09:36:43.398Z,101204.19
2022-07-29T09:39:12.828Z,101212.03
2022-07-29T09:41:48.760Z,101199.16
2022-07-29T09:44:17.057Z,101202.84
2022-07-29T09:46:58.972Z,101197.03
2022-07-29T09:49:27.694Z,101198.31
2022-07-29T09:52:03.455Z,101190.63
2022-07-29T09:54:37.585Z,101183.78
2022-07-29T09:57:06.465Z,101192.78
2022-07-29T09:59:34.792Z,101193.09
2022-07-29T10:02:03.029Z,101183.94
2022-07-29T10:04:42.039Z,101184.00
2022-07-29T10:07:10.562Z,101182.41
2022-07-29T10:09:39.772Z,101189.91
2022-07-29T10:12:10.087Z,101180.09
2022-07-29T10:14:38.489Z,101173.63
2022-07-29T10:17:07.703Z,101182.22
2022-07-29T10:19:36.561Z,101178.22
2022-07-29T10:22:06.270Z,101177.72
2022-07-29T10:24:34.755Z,101180.97
2022-07-29T10:27:05.285Z,101185.75
2022-07-29T10:29:33.351Z,101179.44
2022-07-29T10:32:21.282Z,101177.31
2022-07-29T10:35:02.598Z,101173.09
2022-07-29T10:37:35.933Z,101178.13
2022-07-29T10:40:25.431Z,101177.41
2022-07-29T10:42:57.809Z,101180.59
2022-07-29T10:45:26.045Z,101172.22
2022-07-29T10:48:07.937Z,101174.13
2022-07-29T10:50:57.751Z,101168.03
2022-07-29T10:53:25.935Z,101167.94
2022-07-29T10:56:01.631Z,101157.63
2022-07-29T10:58:35.657Z,101164.34
2022-07-29T11:01:37.239Z,101161.38
2022-07-29T11:07:11.023Z,101157.97
2022-07-29T11:09:40.035Z,101161.63
2022-07-29T11:12:48.257Z,101155.97
2022-07-29T11:15:19.995Z,101153.03
2022-07-29T11:18:15.256Z,101148.84
2022-07-29T11:20:47.771Z,101144.44
2022-07-29T11:23:24.437Z,101143.88
2022-07-29T11:26:23.298Z,101142.47
2022-07-29T11:28:59.523Z,101146.47
2022-07-29T11:31:39.989Z,101145.41
2022-07-29T11:34:28.238Z,101138.72
2022-07-29T11:37:30.878Z,101138.38
2022-07-29T11:40:21.305Z,101141.38
2022-07-29T11:42:51.895Z,101136.06
2022-07-29T11:45:41.640Z,101128.41
2022-07-29T11:48:31.363Z,101131.56
2022-07-29T11:51:03.907Z,101139.28
2022-07-29T11:53:35.768Z,101131.22
2022-07-29T11:56:06.155Z,101120.09
2022-07-29T11:58:34.506Z,101126.97
2022-07-29T12:01:06.161Z,101124.91
2022-07-29T12:06:23.696Z,101117.75
2022-07-29T12:08:51.574Z,101125.00
2022-07-29T12:11:21.555Z,101125.41
2022-07-29T12:13:50.242Z,101117.97
2022-07-29T12:16:27.922Z,101114.31
2022-07-29T12:18:59.948Z,101104.16
2022-07-29T12:21:29.117Z,101110.06
2022-07-29T12:24:04.837Z,101106.97
2022-07-29T12:26:36.608Z,101109.66
2022-07-29T12:29:07.326Z,101097.97
2022-07-29T12:31:43.516Z,101102.00
2022-07-29T12:34:14.419Z,101104.19
2022-07-29T12:36:43.118Z,101100.59
2022-07-29T12:39:11.130Z,101091.41
2022-07-29T12:41:39.636Z,101098.03
2022-07-29T12:44:07.385Z,101093.69
2022-07-29T12:46:35.428Z,101089.22
2022-07-29T12:49:04.077Z,101094.91
2022-07-29T12:51:35.192Z,101089.69
2022-07-29T12:54:06.561Z,101083.00
2022-07-29T12:56:43.632Z,101090.91
2022-07-29T12:59:17.811Z,101090.75
2022-07-29T13:01:45.846Z,101093.94
2022-07-29T13:04:26.165Z,101089.78
2022-07-29T13:07:04.793Z,101089.41
2022-07-29T13:09:40.270Z,101087.34
2022-07-29T13:12:09.429Z,101080.75
2022-07-29T13:14:38.878Z,101078.31
2022-07-29T13:17:08.442Z,101070.63
2022-07-29T13:19:38.273Z,101076.75
2022-07-29T13:22:07.579Z,101077.53
2022-07-29T13:24:35.803Z,101073.09
2022-07-29T13:27:05.524Z,101066.94
2022-07-29T13:29:34.142Z,101058.13
2022-07-29T13:32:02.050Z,101053.31
2022-07-29T13:34:29.911Z,101057.34
2022-07-29T13:36:57.699Z,101052.66
2022-07-29T13:39:26.918Z,101046.81
2022-07-29T13:41:55.203Z,101053.34
2022-07-29T13:44:24.299Z,101044.59
2022-07-29T13:46:52.151Z,101039.69
2022-07-29T13:49:20.168Z,101037.69
2022-07-29T13:51:48.003Z,101039.06
2022-07-29T13:54:15.836Z,101047.84
2022-07-29T13:56:45.039Z,101050.72
2022-07-29T13:59:16.412Z,101044.91
2022-07-29T14:01:44.400Z,101043.94
2022-07-29T14:04:13.713Z,101038.28
2022-07-29T14:06:41.713Z,101032.81
2022-07-29T14:09:10.128Z,101035.03
2022-07-29T14:11:39.347Z,101029.38
2022-07-29T14:14:08.776Z,101037.75
2022-07-29T14:16:42.028Z,101027.06
2022-07-29T14:19:11.885Z,101017.75
2022-07-29T14:21:39.954Z,101011.81
2022-07-29T14:24:16.301Z,101025.59
2022-07-29T14:26:46.286Z,101018.28
2022-07-29T14:29:15.837Z,101017.22
2022-07-29T14:31:44.853Z,101015.75
2022-07-29T14:34:12.749Z,101012.66
2022-07-29T14:36:40.563Z,101001.75
2022-07-29T14:39:08.432Z,100990.06
2022-07-29T14:41:36.302Z,101004.09
2022-07-29T14:44:04.433Z,101002.22
2022-07-29T14:46:33.614Z,101008.47
2022-07-29T14:49:02.277Z,101005.63
2022-07-29T14:51:32.404Z,101007.94
2022-07-29T14:54:00.699Z,101008.44
2022-07-29T14:56:46.828Z,101002.81
2022-07-29T14:59:15.033Z,101006.22
2022-07-29T15:01:44.772Z,101004.69
2022-07-29T15:04:12.595Z,100999.69
2022-07-29T15:06:40.485Z,101003.03
2022-07-29T15:09:08.395Z,100997.56
2022-07-29T15:11:37.039Z,100987.63
2022-07-29T15:14:06.789Z,100990.34
2022-07-29T15:16:34.953Z,100995.53
2022-07-29T15:19:04.768Z,100993.00
2022-07-29T15:21:32.708Z,100999.53
2022-07-29T15:24:00.585Z,101004.41
2022-07-29T15:26:28.736Z,100999.50
2022-07-29T15:28:57.389Z,100994.91
2022-07-29T15:31:25.383Z,100991.47
2022-07-29T15:33:57.593Z,100993.88
2022-07-29T15:36:51.088Z,100985.66
2022-07-29T15:39:15.770Z,100983.22
2022-07-29T15:41:43.692Z,100978.72
2022-07-29T15:44:11.525Z,100974.31
2022-07-29T15:46:57.335Z,100980.72
2022-07-29T15:49:31.399Z,100973.59
2022-07-29T15:52:26.190Z,100976.56
2022-07-29T15:54:55.092Z,100970.44
2022-07-29T15:57:23.346Z,100970.06
2022-07-29T15:59:51.934Z,100969.06
2022-07-29T16:02:19.985Z,100967.00
2022-07-29T16:04:47.819Z,100968.78
2022-07-29T16:07:15.708Z,100963.31
2022-07-29T16:09:50.815Z,100964.34
2022-07-29T16:12:20.639Z,100970.41
2022-07-29T16:14:49.401Z,100961.38
2022-07-29T16:17:17.498Z,100963.63
2022-07-29T16:19:45.695Z,100955.56
2022-07-29T16:22:13.832Z,100949.63
2022-07-29T16:24:41.779Z,100950.66
2022-07-29T16:27:11.030Z,100939.91
2022-07-29T16:29:38.915Z,100946.94
2022-07-29T16:32:07.505Z,100942.88
2022-07-29T16:34:35.469Z,100938.47
2022-07-29T16:37:03.882Z,100944.00
2022-07-29T16:39:32.179Z,100938.34
2022-07-29T16:42:02.309Z,100929.13
2022-07-29T16:44:33.638Z,100932.78
2022-07-29T16:47:02.642Z,100931.09
2022-07-29T16:49:31.473Z,100928.56
2022-07-29T16:51:59.343Z,100927.72
2022-07-29T16:54:27.360Z,100925.50
2022-07-29T16:56:55.727Z,100934.41
2022-07-29T16:59:26.834Z,100931.03
2022-07-29T17:01:56.220Z,100934.06
2022-07-29T17:04:24.135Z,100932.59
2022-07-29T17:06:52.497Z,100942.53
2022-07-29T17:09:21.070Z,100933.38
2022-07-29T17:11:54.832Z,100936.59
2022-07-29T17:14:24.873Z,100943.31
2022-07-29T17:17:00.514Z,100931.16
2022-07-29T17:19:33.824Z,100937.59
2022-07-29T17:22:10.537Z,100936.66
2022-07-29T17:24:42.158Z,100934.47
2022-07-29T17:27:10.364Z,100934.41
2022-07-29T17:29:38.762Z,100938.66
2022-07-29T17:32:08.995Z,100935.69
2022-07-29T17:34:38.407Z,100945.25
2022-07-29T17:37:06.511Z,100941.19
2022-07-29T17:39:35.456Z,100928.88
2022-07-29T17:42:03.511Z,100945.00
2022-07-29T17:44:31.431Z,100942.06
2022-07-29T17:47:01.546Z,100937.16
2022-07-29T17:49:29.918Z,100937.44
2022-07-29T17:52:01.077Z,100939.38
2022-07-29T17:54:29.616Z,100929.84
2022-07-29T17:56:57.705Z,100935.78
2022-07-29T17:59:25.807Z,100935.53
2022-07-29T18:01:54.163Z,100939.13
2022-07-29T18:04:23.472Z,100946.88
2022-07-29T18:06:51.692Z,100942.50
2022-07-29T18:09:20.853Z,100940.34
2022-07-29T18:11:48.885Z,100932.84
2022-07-29T18:14:17.109Z,100947.19
2022-07-29T18:16:45.057Z,100949.06
2022-07-29T18:19:13.042Z,100943.97
2022-07-29T18:21:51.272Z,100947.97
2022-07-29T18:24:25.589Z,100951.16
2022-07-29T18:26:53.665Z,100952.94
2022-07-29T18:29:21.541Z,100959.84
2022-07-29T18:31:49.618Z,100966.75
2022-07-29T18:34:17.797Z,100963.66
2022-07-29T18:36:46.064Z,100963.97
2022-07-29T18:39:18.864Z,100970.13
2022-07-29T18:41:51.634Z,100977.47
2022-07-29T18:44:21.884Z,100977.63
2022-07-29T18:46:51.585Z,100973.94
2022-07-29T18:49:19.835Z,100967.06
2022-07-29T18:51:48.465Z,100968.31
2022-07-29T18:54:17.391Z,100967.44
2022-07-29T18:56:45.453Z,100975.75
2022-07-29T18:59:17.046Z,100972.94
2022-07-29T19:01:45.203Z,100980.41
2022-07-29T19:04:13.186Z,100983.50
2022-07-29T19:06:41.471Z,100980.34
2022-07-29T19:09:09.552Z,100979.75
2022-07-29T19:11:37.666Z,100982.44
2022-07-29T19:14:06.611Z,100983.19
2022-07-29T19:16:36.029Z,100984.53
2022-07-29T19:19:05.626Z,100993.75
2022-07-29T19:21:33.463Z,100996.91
2022-07-29T19:24:07.387Z,100997.38
2022-07-29T19:26:39.241Z,101011.03
2022-07-29T19:29:07.202Z,100998.22
2022-07-29T19:31:36.506Z,101008.91
2022-07-29T19:34:05.645Z,101006.34
2022-07-29T19:36:33.580Z,101000.84
2022-07-29T19:39:01.995Z,101008.19
2022-07-29T19:41:29.947Z,101001.88
2022-07-29T19:43:58.187Z,101009.44
2022-07-29T19:46:28.824Z,101008.03
2022-07-29T19:48:58.187Z,101013.06
2022-07-29T19:51:26.990Z,101014.69
2022-07-29T19:53:54.804Z,101005.34
2022-07-29T19:56:25.267Z,101007.91
2022-07-29T19:58:53.151Z,101008.13
2022-07-29T20:01:21.538Z,101007.16
2022-07-29T20:03:49.533Z,101014.84
2022-07-29T20:06:18.921Z,101018.91
2022-07-29T20:08:46.985Z,101012.91
2022-07-29T20:11:14.911Z,101009.19
2022-07-29T20:13:42.877Z,101018.75
2022-07-29T20:16:10.827Z,101009.88
2022-07-29T20:18:38.793Z,101011.59
2022-07-29T20:21:06.783Z,101015.75
2022-07-29T20:23:35.987Z,101006.78
2022-07-29T20:26:09.232Z,101013.06
2022-07-29T20:28:40.095Z,101018.31
2022-07-29T20:31:08.788Z,101015.66
2022-07-29T20:33:36.747Z,101014.66
2022-07-29T20:36:07.655Z,101015.88
2022-07-29T20:38:36.914Z,101015.72
2022-07-29T20:41:08.173Z,101018.84
2022-07-29T20:43:39.161Z,101017.72
2022-07-29T20:46:07.281Z,101019.47
2022-07-29T20:48:35.238Z,101025.72
2022-07-29T20:51:06.790Z,101027.78
2022-07-29T20:53:36.134Z,101030.22
2022-07-29T20:56:07.813Z,101029.81
2022-07-29T20:58:36.502Z,101029.25
2022-07-29T21:01:08.013Z,101032.19
2022-07-29T21:03:35.956Z,101030.28
2022-07-29T21:06:09.625Z,101028.63
2022-07-29T21:08:39.128Z,101029.66
2022-07-29T21:11:06.921Z,101037.16
2022-07-29T21:13:38.389Z,101032.47
2022-07-29T21:16:14.883Z,101037.88
2022-07-29T21:18:46.006Z,101032.16
2022-07-29T21:21:15.218Z,101031.00
2022-07-29T21:23:45.921Z,101040.00
2022-07-29T21:26:13.821Z,101041.13
2022-07-29T21:28:40.929Z,101048.19
2022-07-29T21:31:10.431Z,101034.25
2022-07-29T21:33:38.567Z,101041.09
2022-07-29T21:36:42.380Z,101041.84
2022-07-29T21:38:57.278Z,101036.03
2022-07-29T21:41:25.518Z,101049.75
2022-07-29T21:43:54.570Z,101044.50
2022-07-29T21:46:26.114Z,101037.88
2022-07-29T21:48:54.005Z,101033.28
2022-07-29T21:51:21.887Z,101029.84
2022-07-29T21:53:50.551Z,101030.88
2022-07-29T21:56:23.616Z,101039.53
2022-07-29T21:58:55.521Z,101034.84
2022-07-29T22:01:23.799Z,101037.97
2022-07-29T22:03:51.872Z,101040.38
2022-07-29T22:06:19.776Z,101039.78
2022-07-29T22:08:48.079Z,101040.22
2022-07-29T22:11:16.146Z,101032.84
2022-07-29T22:13:45.367Z,101033.78
2022-07-29T22:16:14.975Z,101043.28
2022-07-29T22:18:45.023Z,101038.19
2022-07-29T22:21:12.947Z,101036.25
2022-07-29T22:23:40.805Z,101038.56
2022-07-29T22:26:08.640Z,101030.66
2022-07-29T22:28:36.559Z,101034.16
2022-07-29T22:31:08.987Z,101034.13
2022-07-29T22:33:37.153Z,101035.09
2022-07-29T22:36:08.371Z,101036.84
2022-07-29T22:38:36.225Z,101030.13
2022-07-29T22:41:06.242Z,101023.56
2022-07-29T22:43:34.158Z,101027.00
2022-07-29T22:46:06.222Z,101023.78
2022-07-29T22:48:35.445Z,101022.03
2022-07-29T22:51:06.077Z,101013.28
2022-07-29T22:53:33.878Z,101011.63
2022-07-29T22:56:04.396Z,101003.34
2022-07-29T22:58:32.358Z,101007.53
2022-07-29T23:01:00.277Z,101005.00
2022-07-29T23:03:29.023Z,101006.00
2022-07-29T23:05:58.252Z,101001.47
2022-07-29T23:08:26.152Z,101000.94
2022-07-29T23:10:53.992Z,100997.59
2022-07-29T23:13:21.916Z,101007.22
2022-07-29T23:15:49.805Z,100998.06
2022-07-29T23:18:17.729Z,101003.56
2022-07-29T23:20:45.722Z,100996.03
2022-07-29T23:23:15.047Z,101001.56
2022-07-29T23:25:42.927Z,100995.00
2022-07-29T23:28:12.200Z,100989.03
2022-07-29T23:30:41.391Z,100995.88
2022-07-29T23:33:09.343Z,101000.75
2022-07-29T23:35:37.319Z,101004.16
2022-07-29T23:38:05.168Z,101004.25
2022-07-29T23:40:34.417Z,101001.59
2022-07-29T23:43:02.251Z,101000.31
2022-07-29T23:45:44.556Z,100995.72
2022-07-29T23:48:16.485Z,101003.94
2022-07-29T23:50:44.370Z,100995.75
2022-07-29T23:53:12.641Z,100995.50
2022-07-29T23:55:41.896Z,100990.59
2022-07-29T23:58:09.702Z,100994.72
